Time;durP1;ratioP1;P1;durP2;ratioP2;P2;SDS_P1;SDS_P2;PMS_P1;PMS_P2;Temp;Humidity;BMP_temperature;BMP_pressure;BME280_temperature;BME280_humidity;BME280_pressure;Samples;Min_cycle;Max_cycle;Signal;HPM_P1;HPM_P2
2022/05/22 00:01:41;;;;;;;11.35;4.00;;;;;;;15.28;67.49;101978.75;5024247;28;20511;-80
2022/05/22 00:04:08;;;;;;;12.35;3.75;;;;;;;15.29;67.68;101977.94;5019564;28;20037;-77
2022/05/22 00:06:33;;;;;;;11.90;4.28;;;;;;;15.20;67.60;101975.09;5020987;28;20393;-78
2022/05/22 00:08:59;;;;;;;10.45;4.10;;;;;;;15.19;68.02;101973.34;5020384;28;20034;-79
2022/05/22 00:11:25;;;;;;;12.88;3.90;;;;;;;15.14;67.75;101965.44;5026761;28;20029;-80
2022/05/22 00:13:51;;;;;;;11.80;3.80;;;;;;;15.17;68.40;101960.34;5028700;28;20026;-80
2022/05/22 00:19:01;;;;;;;14.10;3.80;;;;;;;15.22;68.79;101961.31;5029116;28;20537;-79
2022/05/22 00:21:27;;;;;;;11.35;4.28;;;;;;;15.13;68.83;101952.44;5029527;28;20038;-80
2022/05/22 00:23:52;;;;;;;11.50;4.10;;;;;;;15.14;68.52;101955.06;5028384;28;20025;-78
2022/05/22 00:26:18;;;;;;;14.60;4.60;;;;;;;15.14;68.60;101942.13;5017221;28;20029;-79
2022/05/22 00:28:43;;;;;;;11.95;4.40;;;;;;;15.10;68.75;101941.97;5021005;28;20428;-79
2022/05/22 00:31:09;;;;;;;10.63;4.00;;;;;;;15.12;67.99;101943.81;5024917;28;20037;-79
2022/05/22 00:33:34;;;;;;;10.45;3.67;;;;;;;15.11;68.12;101946.34;5026947;28;20360;-80
2022/05/22 00:36:00;;;;;;;11.35;3.92;;;;;;;15.00;68.70;101948.66;5031641;28;20666;-79
2022/05/22 00:38:25;;;;;;;10.20;3.90;;;;;;;15.06;68.27;101946.22;5026535;28;20046;-78
2022/05/22 00:40:51;;;;;;;12.98;4.10;;;;;;;14.98;68.93;101948.59;5029596;28;20029;-77
2022/05/22 00:43:36;;;;;;;9.73;3.75;;;;;;;15.08;68.65;101944.53;5021698;28;20098;-77
2022/05/22 00:46:05;;;;;;;7.85;3.78;;;;;;;15.04;69.07;101942.69;5031433;28;20107;-80
2022/05/22 00:48:32;;;;;;;10.88;4.13;;;;;;;14.91;69.42;101938.03;5025894;28;20116;-79
2022/05/22 00:51:12;;;;;;;10.77;4.40;;;;;;;14.88;70.17;101938.84;5028682;28;20392;-79
2022/05/22 00:53:41;;;;;;;11.73;4.25;;;;;;;14.94;69.81;101939.00;5022428;28;20034;-77
2022/05/22 00:56:12;;;;;;;13.25;4.10;;;;;;;14.89;70.11;101935.41;5019365;28;20047;-79
2022/05/22 00:58:39;;;;;;;14.20;5.22;;;;;;;14.78;70.09;101938.53;5019442;28;20395;-79
2022/05/22 01:01:04;;;;;;;9.27;4.32;;;;;;;14.73;70.53;101930.63;5022688;28;20034;-80
2022/05/22 01:03:31;;;;;;;16.75;4.47;;;;;;;14.70;70.78;101933.16;5025678;28;20041;-76
2022/05/22 01:06:10;;;;;;;13.15;4.50;;;;;;;14.72;70.70;101924.56;5024585;28;20376;-80
2022/05/22 01:08:37;;;;;;;12.70;4.40;;;;;;;14.71;70.61;101929.72;5024407;28;20029;-79
2022/05/22 01:11:11;;;;;;;9.20;3.85;;;;;;;14.70;70.40;101925.38;5025602;28;20112;-78
2022/05/22 01:13:43;;;;;;;14.85;4.00;;;;;;;14.72;70.24;101932.34;5023330;28;20021;-75
2022/05/22 01:16:09;;;;;;;11.00;4.75;;;;;;;14.61;71.10;101932.88;5022175;28;20121;-79
2022/05/22 01:19:08;;;;;;;12.68;5.03;;;;;;;14.76;70.12;101946.25;5017481;28;20128;-77
2022/05/22 01:21:33;;;;;;;12.23;4.53;;;;;;;14.63;70.13;101939.88;5024507;28;20029;-78
2022/05/22 01:23:58;;;;;;;13.55;5.35;;;;;;;14.63;70.37;101939.00;5028517;28;20036;-80
2022/05/22 01:26:26;;;;;;;12.35;5.28;;;;;;;14.56;70.72;101932.75;5027461;28;20033;-79
2022/05/22 01:28:52;;;;;;;11.80;4.65;;;;;;;14.43;71.03;101915.06;5022181;28;20032;-80
2022/05/22 01:31:17;;;;;;;11.63;5.40;;;;;;;14.45;71.31;101913.41;5010877;28;20038;-77
2022/05/22 01:33:43;;;;;;;16.58;4.95;;;;;;;14.53;71.52;101916.25;5005359;28;20080;-80
2022/05/22 01:36:10;;;;;;;13.30;4.93;;;;;;;14.45;71.92;101922.06;5022527;28;20073;-80
2022/05/22 01:38:37;;;;;;;11.07;4.70;;;;;;;14.33;72.40;101916.53;5025517;28;20121;-80
2022/05/22 01:41:04;;;;;;;12.73;5.10;;;;;;;14.34;72.50;101918.28;5024436;28;20136;-80
2022/05/22 01:43:29;;;;;;;15.77;5.13;;;;;;;14.29;72.18;101909.50;5023116;28;20049;-78
2022/05/22 01:45:55;;;;;;;15.48;5.70;;;;;;;14.26;72.26;101906.84;5003031;28;20041;-78
2022/05/22 01:48:22;;;;;;;12.55;6.20;;;;;;;14.26;72.28;101905.94;5024021;28;20100;-80
2022/05/22 01:50:48;;;;;;;29.02;14.55;;;;;;;14.29;72.32;101906.91;5019767;28;20521;-80
2022/05/22 01:53:14;;;;;;;20.10;9.77;;;;;;;14.08;73.08;101891.63;5010808;28;20033;-80
2022/05/22 01:55:40;;;;;;;12.77;6.07;;;;;;;14.17;72.63;101902.25;5025314;28;20048;-80
2022/05/22 01:58:08;;;;;;;14.68;5.95;;;;;;;14.17;72.75;101897.06;5029938;28;20025;-79
2022/05/22 02:00:35;;;;;;;12.05;5.13;;;;;;;14.17;72.45;101901.38;5016755;28;20037;-79
2022/05/22 02:03:01;;;;;;;12.52;5.10;;;;;;;14.10;72.90;101908.06;5027545;28;20149;-78
2022/05/22 02:05:26;;;;;;;15.75;5.38;;;;;;;14.03;73.09;101906.13;5026856;28;20054;-80
2022/05/22 02:10:38;;;;;;;17.42;5.40;;;;;;;14.03;73.49;101895.78;5025430;28;20035;-77
2022/05/22 02:13:04;;;;;;;13.15;5.25;;;;;;;14.06;73.16;101889.81;4995997;28;20131;-80
2022/05/22 02:15:31;;;;;;;13.88;5.40;;;;;;;14.07;73.17;101889.84;5007848;28;21048;-79
2022/05/22 02:17:56;;;;;;;13.95;5.43;;;;;;;13.91;73.59;101878.19;5023403;28;20106;-79
2022/05/22 02:20:23;;;;;;;12.02;5.53;;;;;;;14.00;73.45;101887.94;5022577;28;20444;-78
2022/05/22 02:22:51;;;;;;;14.45;5.28;;;;;;;14.00;73.58;101881.88;5025617;28;20113;-80
2022/05/22 02:25:23;;;;;;;16.00;5.82;;;;;;;13.87;74.01;101876.34;5018515;28;20049;-74
2022/05/22 02:27:49;;;;;;;11.48;5.60;;;;;;;13.86;73.95;101873.72;5024665;28;20064;-78
2022/05/22 02:30:18;;;;;;;12.30;5.30;;;;;;;13.96;73.83;101875.75;5024815;28;20518;-77
2022/05/22 02:32:44;;;;;;;11.35;5.45;;;;;;;13.78;74.15;101854.50;5026089;28;20437;-76
2022/05/22 02:35:11;;;;;;;12.60;6.07;;;;;;;13.94;73.80;101869.63;5027346;28;20052;-78
2022/05/22 02:37:45;;;;;;;13.52;5.50;;;;;;;13.97;73.65;101861.13;5021993;28;20036;-79
2022/05/22 02:40:12;;;;;;;12.23;5.72;;;;;;;13.95;74.36;101861.94;5025679;28;20029;-79
2022/05/22 02:42:41;;;;;;;11.98;5.60;;;;;;;14.01;74.23;101857.75;5027347;28;20092;-79
2022/05/22 02:45:08;;;;;;;17.08;5.70;;;;;;;13.94;74.21;101851.53;5027649;28;20044;-76
2022/05/22 02:47:34;;;;;;;13.57;5.32;;;;;;;13.97;73.87;101849.06;5041300;28;20377;-79
2022/05/22 02:49:59;;;;;;;14.23;5.63;;;;;;;13.86;74.46;101846.16;5029668;28;20092;-75
2022/05/22 02:52:25;;;;;;;15.25;5.53;;;;;;;13.94;74.65;101855.00;5022361;28;20452;-79
2022/05/22 02:54:50;;;;;;;11.30;5.63;;;;;;;13.90;74.51;101855.75;5022900;28;20033;-78
2022/05/22 02:57:21;;;;;;;13.05;6.20;;;;;;;13.88;74.56;101861.69;5022530;28;20032;-78
2022/05/22 02:59:49;;;;;;;11.68;5.78;;;;;;;13.84;74.24;101860.75;5026524;28;20124;-77
2022/05/22 03:02:15;;;;;;;10.45;5.25;;;;;;;13.77;74.41;101861.41;5024218;28;20215;-79
2022/05/22 03:04:42;;;;;;;10.55;5.93;;;;;;;13.82;74.71;101864.97;5026127;28;20123;-77
2022/05/22 03:07:13;;;;;;;11.88;5.93;;;;;;;13.73;74.86;101877.63;5019037;28;20045;-79
2022/05/22 03:09:41;;;;;;;12.40;5.95;;;;;;;13.64;74.67;101851.47;5025443;28;20053;-78
2022/05/22 03:12:17;;;;;;;14.15;5.40;;;;;;;13.76;75.21;101856.16;5022897;28;20025;-79
2022/05/22 03:14:51;;;;;;;15.10;5.85;;;;;;;13.61;75.13;101852.28;5023498;28;21614;-79
2022/05/22 03:17:17;;;;;;;13.88;5.70;;;;;;;13.66;75.02;101850.72;5026939;28;20025;-77
2022/05/22 03:19:42;;;;;;;14.38;5.70;;;;;;;13.56;75.66;101850.38;5025626;28;20500;-79
2022/05/22 03:22:10;;;;;;;15.15;5.75;;;;;;;13.63;75.60;101847.16;5021601;28;20099;-78
2022/05/22 03:24:36;;;;;;;15.10;5.97;;;;;;;13.49;75.28;101838.09;5027983;28;20428;-79
2022/05/22 03:27:03;;;;;;;12.23;5.90;;;;;;;13.40;75.28;101821.44;5013596;28;20025;-79
2022/05/22 03:29:29;;;;;;;11.90;6.03;;;;;;;13.28;75.41;101828.81;5016077;28;20549;-79
2022/05/22 03:31:54;;;;;;;12.48;5.65;;;;;;;13.43;75.51;101833.59;5028133;28;20037;-78
2022/05/22 03:34:21;;;;;;;15.73;6.32;;;;;;;13.45;75.63;101841.41;5023840;28;20163;-76
2022/05/22 03:36:48;;;;;;;11.65;5.78;;;;;;;13.29;76.05;101830.59;5040332;28;20029;-79
2022/05/22 03:39:14;;;;;;;10.30;5.75;;;;;;;13.37;75.72;101829.13;5027109;28;20128;-77
2022/05/22 03:41:41;;;;;;;14.85;6.25;;;;;;;13.29;76.13;101821.97;5015895;28;20044;-79
2022/05/22 03:44:07;;;;;;;14.60;5.55;;;;;;;13.28;75.94;101828.81;5034751;28;20128;-79
2022/05/22 03:46:33;;;;;;;14.05;6.18;;;;;;;13.20;76.69;101824.19;5027593;28;20079;-78
2022/05/22 03:48:59;;;;;;;14.40;5.60;;;;;;;13.21;76.45;101815.66;5029932;28;20029;-77
2022/05/22 03:51:24;;;;;;;11.73;5.57;;;;;;;13.20;76.50;101813.88;5002811;28;20117;-79
2022/05/22 03:53:51;;;;;;;12.45;6.00;;;;;;;13.08;76.44;101810.06;5028609;28;20122;-79
2022/05/22 03:56:19;;;;;;;12.38;6.22;;;;;;;13.08;76.84;101809.19;5014698;28;20482;-79
2022/05/22 03:58:44;;;;;;;16.65;6.95;;;;;;;13.13;76.74;101818.84;5028862;28;20037;-78
2022/05/22 04:01:11;;;;;;;11.50;5.90;;;;;;;13.16;75.89;101820.63;5026573;28;20092;-79
2022/05/22 04:03:39;;;;;;;10.48;6.05;;;;;;;13.13;76.33;101825.72;5023922;28;20056;-79
2022/05/22 04:06:07;;;;;;;13.75;6.75;;;;;;;13.17;76.28;101830.16;5027004;28;20064;-78
2022/05/22 04:08:33;;;;;;;13.98;6.85;;;;;;;13.11;76.43;101827.38;5030256;28;20034;-79
2022/05/22 04:11:06;;;;;;;12.32;6.53;;;;;;;13.22;76.75;101836.34;5027787;28;20037;-77
2022/05/22 04:13:32;;;;;;;12.60;6.13;;;;;;;13.18;76.46;101825.88;5028437;28;20019;-78
2022/05/22 04:15:58;;;;;;;13.10;6.47;;;;;;;13.25;76.26;101826.16;5027080;28;20055;-79
2022/05/22 04:18:24;;;;;;;12.95;6.57;;;;;;;13.03;77.13;101813.31;5029610;28;20571;-77
2022/05/22 04:20:51;;;;;;;11.98;6.70;;;;;;;13.08;77.14;101806.59;5012393;28;20045;-78
2022/05/22 04:26:01;;;;;;;14.00;6.18;;;;;;;13.05;77.31;101817.72;5034488;28;20056;-78
2022/05/22 04:28:29;;;;;;;11.32;6.72;;;;;;;13.16;77.05;101815.47;5028004;28;20468;-76
2022/05/22 04:30:55;;;;;;;12.13;6.93;;;;;;;13.11;77.32;101822.22;5026589;28;20020;-74
2022/05/22 04:33:20;;;;;;;14.40;6.97;;;;;;;13.16;76.89;101810.31;5025322;28;20040;-77
2022/05/22 04:35:47;;;;;;;11.35;7.20;;;;;;;13.16;77.53;101810.31;5031886;28;20038;-79
2022/05/22 04:38:15;;;;;;;13.60;6.85;;;;;;;13.10;77.16;101811.00;5029603;28;20053;-79
2022/05/22 04:40:41;;;;;;;13.70;6.97;;;;;;;13.14;77.04;101812.84;5034055;28;20111;-79
2022/05/22 04:43:09;;;;;;;11.60;6.95;;;;;;;13.12;77.45;101813.63;5028868;28;20037;-78
2022/05/22 04:45:38;;;;;;;15.32;7.50;;;;;;;13.18;77.19;101819.00;5015742;28;20037;-79
2022/05/22 04:48:06;;;;;;;16.35;7.90;;;;;;;13.17;77.25;101827.56;5029809;28;20120;-77
2022/05/22 04:50:32;;;;;;;16.23;7.88;;;;;;;13.13;77.51;101816.25;5026914;28;20035;-78
2022/05/22 04:53:01;;;;;;;11.55;7.82;;;;;;;13.25;77.34;101818.41;5008871;28;20034;-79
2022/05/22 04:55:27;;;;;;;16.20;8.00;;;;;;;13.18;77.72;101823.28;5034061;28;20037;-77
2022/05/22 04:57:53;;;;;;;14.05;7.88;;;;;;;13.25;77.52;101808.06;5033423;28;20035;-78
2022/05/22 05:00:19;;;;;;;14.82;7.82;;;;;;;13.13;77.35;101790.44;5034760;28;20061;-77
2022/05/22 05:02:47;;;;;;;15.77;7.70;;;;;;;13.29;77.25;101809.94;5022706;28;20103;-78
2022/05/22 05:05:14;;;;;;;13.57;7.72;;;;;;;13.34;76.91;101803.16;5034545;28;20121;-77
2022/05/22 05:07:42;;;;;;;14.75;7.55;;;;;;;13.39;77.00;101803.31;5035843;28;20038;-77
2022/05/22 05:10:11;;;;;;;11.43;7.50;;;;;;;13.41;77.16;101805.16;5030867;28;20029;-78
2022/05/22 05:12:39;;;;;;;18.27;8.35;;;;;;;13.39;76.62;101803.31;5035655;28;20530;-78
2022/05/22 05:15:07;;;;;;;15.25;8.15;;;;;;;13.24;77.04;101790.81;5032422;28;20036;-75
2022/05/22 05:17:35;;;;;;;13.63;8.15;;;;;;;13.31;76.97;101797.94;5037838;28;20394;-79
2022/05/22 05:20:04;;;;;;;16.02;8.43;;;;;;;13.45;76.81;101806.09;5036659;28;20132;-77
2022/05/22 05:22:31;;;;;;;14.85;8.43;;;;;;;13.41;76.35;101807.72;5033843;28;20045;-76
2022/05/22 05:24:57;;;;;;;12.98;7.78;;;;;;;13.53;76.75;101809.81;5028910;28;20037;-79
2022/05/22 05:27:22;;;;;;;15.18;8.23;;;;;;;13.44;76.37;101800.91;5034057;28;20690;-78
2022/05/22 05:29:49;;;;;;;15.50;7.85;;;;;;;13.50;76.71;101806.25;5024046;28;20476;-78
2022/05/22 05:32:22;;;;;;;15.63;8.27;;;;;;;13.59;75.86;101806.50;5032808;28;20025;-79
2022/05/22 05:34:57;;;;;;;15.68;8.48;;;;;;;13.60;76.39;101818.63;5035403;28;20048;-78
2022/05/22 05:37:23;;;;;;;12.65;7.75;;;;;;;13.56;76.12;101799.56;5029514;28;20044;-79
2022/05/22 05:39:48;;;;;;;15.70;8.23;;;;;;;13.67;75.51;101815.41;5031797;28;20037;-77
2022/05/22 05:42:14;;;;;;;11.68;8.13;;;;;;;13.62;75.82;101804.91;5024117;28;20042;-77
2022/05/22 05:44:41;;;;;;;15.57;8.18;;;;;;;13.70;75.93;101810.31;5029887;28;20025;-79
2022/05/22 05:47:08;;;;;;;12.40;7.93;;;;;;;13.78;75.88;101811.44;5027189;28;20022;-80
2022/05/22 05:49:39;;;;;;;13.63;8.10;;;;;;;13.81;75.57;101808.06;5037338;28;20025;-79
2022/05/22 05:52:05;;;;;;;16.55;9.00;;;;;;;13.89;76.36;101817.81;5026340;28;20033;-80
2022/05/22 05:54:32;;;;;;;15.70;8.55;;;;;;;13.87;76.18;101793.59;5041850;28;20048;-80
2022/05/22 05:56:58;;;;;;;15.18;7.95;;;;;;;14.03;75.73;101825.09;5044751;28;20025;-79
2022/05/22 05:59:26;;;;;;;14.38;8.15;;;;;;;14.07;75.10;101816.56;5040083;28;20072;-80
2022/05/22 06:01:52;;;;;;;15.75;8.50;;;;;;;14.05;74.72;101803.59;5033659;28;20018;-79
2022/05/22 06:04:18;;;;;;;16.25;8.43;;;;;;;14.22;74.59;101817.03;5024229;28;20461;-79
2022/05/22 06:06:45;;;;;;;13.18;8.55;;;;;;;14.22;74.20;101811.84;5041443;28;20101;-80
2022/05/22 06:09:11;;;;;;;12.52;8.38;;;;;;;14.37;73.92;101817.44;5031528;28;20041;-76
2022/05/22 06:11:36;;;;;;;12.75;9.38;;;;;;;14.47;74.91;101818.63;5047013;28;20053;-80
2022/05/22 06:14:02;;;;;;;13.90;8.32;;;;;;;14.50;74.22;101805.78;5036632;28;20034;-79
2022/05/22 06:16:28;;;;;;;16.13;8.32;;;;;;;14.61;72.89;101801.72;5034880;28;20053;-80
2022/05/22 06:18:54;;;;;;;16.05;8.10;;;;;;;14.82;72.40;101811.78;5034054;28;20020;-79
2022/05/22 06:21:21;;;;;;;14.93;8.50;;;;;;;14.89;72.14;101808.50;5044330;28;20041;-76
2022/05/22 06:23:49;;;;;;;17.65;8.05;;;;;;;14.93;72.24;101802.59;5042413;28;20033;-76
2022/05/22 06:26:20;;;;;;;15.63;7.70;;;;;;;15.08;71.44;101811.56;5049501;28;20041;-77
2022/05/22 06:28:47;;;;;;;17.17;7.20;;;;;;;15.14;70.80;101796.16;5035574;28;20039;-78
2022/05/22 06:31:13;;;;;;;13.88;7.30;;;;;;;15.39;70.27;101808.84;5023220;28;20036;-77
2022/05/22 06:33:40;;;;;;;18.13;7.88;;;;;;;15.45;70.20;101810.72;5038547;28;20079;-78
2022/05/22 06:36:15;;;;;;;12.68;7.45;;;;;;;15.53;70.09;101815.25;5036291;28;20037;-79
2022/05/22 06:41:45;;;;;;;15.48;7.57;;;;;;;15.65;69.01;101814.69;4957905;28;20111;-77
2022/05/22 06:44:10;;;;;;;14.75;7.38;;;;;;;15.85;68.42;101819.44;4932597;28;20161;-78
2022/05/22 06:46:36;;;;;;;15.23;7.53;;;;;;;15.83;68.32;101824.56;4994315;28;20041;-78
2022/05/22 06:49:02;;;;;;;14.65;7.55;;;;;;;15.99;68.04;101825.78;5028295;28;20082;-78
2022/05/22 06:51:28;;;;;;;16.70;7.65;;;;;;;15.94;67.84;101825.69;5028001;28;20038;-78
2022/05/22 06:53:54;;;;;;;13.98;7.20;;;;;;;16.07;67.54;101834.59;5028357;28;20037;-78
2022/05/22 06:56:20;;;;;;;12.18;7.28;;;;;;;16.18;67.79;101832.22;5032979;28;20029;-79
2022/05/22 06:58:45;;;;;;;11.93;7.15;;;;;;;16.22;67.85;101815.88;5027515;28;20091;-76
2022/05/22 07:01:15;;;;;;;16.23;8.23;;;;;;;16.27;67.49;101819.44;5029442;28;20037;-78
2022/05/22 07:03:40;;;;;;;;;;;;;;;16.43;68.40;101825.81;5028528;28;20021;-79
2022/05/22 07:06:06;;;;;;;14.38;7.28;;;;;;;16.53;67.25;101815.63;5027603;28;19923;-77
2022/05/22 07:08:31;;;;;;;16.92;7.70;;;;;;;16.46;68.12;101818.97;5031054;28;20040;-75
2022/05/22 07:13:40;;;;;;;14.02;7.40;;;;;;;16.50;67.25;101825.97;5031324;28;20118;-78
2022/05/22 07:16:06;;;;;;;13.07;7.65;;;;;;;16.66;67.66;101805.47;5029124;28;20491;-78
2022/05/22 07:18:32;;;;;;;19.73;7.85;;;;;;;16.75;66.19;101813.47;5011989;28;20544;-76
2022/05/22 07:20:57;;;;;;;16.52;7.35;;;;;;;16.87;66.19;101816.28;5028318;28;20041;-71
2022/05/22 07:23:23;;;;;;;14.93;7.55;;;;;;;16.91;66.22;101815.47;5026430;28;20381;-70
2022/05/22 07:25:48;;;;;;;17.92;8.05;;;;;;;16.90;66.20;101816.31;5023581;28;20380;-71
2022/05/22 07:28:14;;;;;;;14.32;7.82;;;;;;;16.96;66.39;101808.63;5025848;28;20675;-75
2022/05/22 07:30:39;;;;;;;15.60;7.65;;;;;;;17.01;66.07;101807.00;5023091;28;20489;-77
2022/05/22 07:33:05;;;;;;;16.40;8.05;;;;;;;17.04;65.29;101799.22;5021144;28;20022;-83
2022/05/22 07:35:30;;;;;;;18.17;7.65;;;;;;;17.10;64.29;101799.31;5006113;28;20069;-80
2022/05/22 07:37:56;;;;;;;15.40;7.57;;;;;;;17.26;64.47;101805.66;5016436;28;20048;-73
2022/05/22 07:40:21;;;;;;;14.88;7.45;;;;;;;17.29;64.12;101799.63;5023918;28;20038;-74
2022/05/22 07:42:47;;;;;;;16.95;7.47;;;;;;;17.33;64.72;101806.63;5015635;28;20045;-74
2022/05/22 07:45:15;;;;;;;14.45;7.07;;;;;;;17.44;65.29;101797.25;5011148;28;20041;-77
2022/05/22 07:47:41;;;;;;;15.32;6.90;;;;;;;17.49;62.02;101806.00;5017547;28;20567;-72
2022/05/22 07:50:16;;;;;;;13.38;6.90;;;;;;;17.64;63.63;101810.53;5013100;28;20021;-70
2022/05/22 07:52:42;;;;;;;13.85;7.63;;;;;;;17.66;63.47;101803.66;5010089;28;20079;-70
2022/05/22 07:55:14;;;;;;;17.35;6.60;;;;;;;17.79;62.36;101802.13;5009426;28;20061;-70
2022/05/22 07:57:43;;;;;;;15.55;6.28;;;;;;;17.86;61.66;101793.53;5017630;28;20029;-73
2022/05/22 08:00:09;;;;;;;;;;;;;;;17.95;62.13;101791.91;5020725;28;20025;-71
2022/05/22 08:02:35;;;;;;;12.20;6.28;;;;;;;17.96;62.22;101785.00;5012122;28;19936;-72
2022/05/22 08:05:00;;;;;;;14.77;6.88;;;;;;;17.91;62.50;101789.28;5013027;28;20037;-68
2022/05/22 08:07:25;;;;;;;11.73;5.88;;;;;;;18.01;60.30;101788.50;5016679;28;21656;-69
2022/05/22 08:09:51;;;;;;;12.65;5.78;;;;;;;18.00;60.02;101781.56;5015384;28;20170;-70
2022/05/22 08:12:17;;;;;;;11.77;5.25;;;;;;;17.98;58.51;101777.22;5011991;28;20021;-69
2022/05/22 08:14:44;;;;;;;12.02;4.25;;;;;;;18.03;58.31;101780.75;5013760;28;20373;-70
2022/05/22 08:17:11;;;;;;;12.35;4.55;;;;;;;18.05;59.93;101779.91;5021152;28;20068;-71
2022/05/22 08:19:36;;;;;;;10.98;4.20;;;;;;;18.10;58.99;101775.63;5017717;28;20040;-71
2022/05/22 08:22:02;;;;;;;9.05;4.80;;;;;;;18.27;58.30;101770.63;5018983;28;20037;-72
2022/05/22 08:24:27;;;;;;;9.32;3.40;;;;;;;18.31;56.06;101761.09;5019492;28;20037;-72
2022/05/22 08:26:52;;;;;;;10.00;3.40;;;;;;;18.40;55.08;101756.88;5016858;28;20080;-72
2022/05/22 08:29:18;;;;;;;9.30;3.63;;;;;;;18.52;55.86;101755.25;5012167;28;20400;-73
2022/05/22 08:31:44;;;;;;;12.25;4.30;;;;;;;18.61;56.41;101750.97;5013669;28;20030;-71
2022/05/22 08:34:11;;;;;;;10.95;3.90;;;;;;;18.73;55.83;101748.50;5017824;28;20411;-72
2022/05/22 08:36:36;;;;;;;9.82;3.97;;;;;;;18.80;55.02;101744.22;5021900;28;20025;-71
2022/05/22 08:39:03;;;;;;;14.07;4.80;;;;;;;18.78;54.56;101735.53;5013480;28;20549;-71
2022/05/22 08:41:41;;;;;;;9.95;4.03;;;;;;;18.92;55.97;101730.41;5013845;28;20042;-72
2022/05/22 08:44:14;;;;;;;10.88;4.93;;;;;;;18.92;52.71;101725.19;5018103;28;20048;-71
2022/05/22 08:46:54;;;;;;;17.15;4.70;;;;;;;19.03;54.74;101714.00;5016824;28;20025;-71
2022/05/22 08:49:32;;;;;;;12.35;5.07;;;;;;;19.06;53.29;101714.91;5014963;28;20709;-71
2022/05/22 08:52:10;;;;;;;10.70;5.30;;;;;;;19.03;53.38;101715.72;5010310;28;20022;-71
2022/05/22 08:54:45;;;;;;;11.52;4.63;;;;;;;19.05;52.49;101716.63;5009773;28;20036;-71
2022/05/22 09:00:09;;;;;;;12.15;4.20;;;;;;;19.22;53.16;101701.94;5005121;28;20053;-72
2022/05/22 09:02:45;;;;;;;13.27;4.53;;;;;;;19.31;52.72;101706.34;5007107;28;20045;-71
2022/05/22 09:05:16;;;;;;;8.75;4.00;;;;;;;19.49;52.59;101696.03;5005117;28;20041;-71
2022/05/22 09:07:59;;;;;;;10.95;3.58;;;;;;;19.53;51.09;101700.34;5006143;28;20048;-71
2022/05/22 09:10:39;;;;;;;8.90;3.67;;;;;;;19.59;53.05;101703.91;5013179;28;20438;-71
2022/05/22 09:13:10;;;;;;;12.15;4.80;;;;;;;19.67;51.42;101700.47;5011538;28;20025;-71
2022/05/22 09:15:52;;;;;;;10.23;4.20;;;;;;;19.72;52.48;101695.28;5010186;28;20033;-70
2022/05/22 09:18:37;;;;;;;13.02;4.43;;;;;;;19.75;52.68;101685.72;5005885;28;20033;-71
2022/05/22 09:21:18;;;;;;;11.20;5.32;;;;;;;19.78;52.96;101685.72;5007170;28;20036;-72
2022/05/22 09:23:57;;;;;;;14.82;5.80;;;;;;;19.76;51.65;101686.56;5009978;28;20030;-72
2022/05/22 09:26:37;;;;;;;10.25;4.35;;;;;;;19.86;50.99;101690.09;5007795;28;20599;-70
2022/05/22 09:29:21;;;;;;;13.50;5.13;;;;;;;19.97;52.55;101683.16;5008085;28;20052;-72
2022/05/22 09:32:12;;;;;;;15.38;6.18;;;;;;;20.00;51.46;101681.41;5004972;28;20383;-70
2022/05/22 09:34:58;;;;;;;15.85;5.50;;;;;;;20.10;51.64;101671.88;5008789;28;20491;-70
2022/05/22 09:37:24;;;;;;;14.02;5.43;;;;;;;20.13;50.13;101671.88;5009618;28;20033;-75
2022/05/22 09:40:01;;;;;;;17.05;6.45;;;;;;;20.08;48.31;101668.38;5006237;28;20092;-71
2022/05/22 09:42:54;;;;;;;13.40;6.28;;;;;;;20.14;50.05;101671.00;5007075;28;20033;-72
2022/05/22 09:45:49;;;;;;;10.77;5.72;;;;;;;20.31;52.17;101661.44;5008376;28;20025;-74
2022/05/22 09:48:33;;;;;;;12.68;5.60;;;;;;;20.44;50.36;101659.69;4983603;28;20045;-72
2022/05/22 09:51:07;;;;;;;13.82;6.93;;;;;;;20.45;49.05;101663.22;5011326;28;20030;-70
2022/05/22 09:53:52;;;;;;;12.80;5.13;;;;;;;20.57;49.22;101660.63;5013088;28;20025;-70
2022/05/22 09:57:00;;;;;;;12.77;5.53;;;;;;;20.66;49.81;101660.59;5020422;28;20033;-70
2022/05/22 09:59:34;;;;;;;13.23;6.00;;;;;;;20.70;47.54;101658.88;4916740;29;20035;-73
2022/05/22 10:02:04;;;;;;;12.32;5.82;;;;;;;20.78;47.77;101662.34;4914195;29;20055;-73
2022/05/22 10:04:51;;;;;;;12.75;5.55;;;;;;;20.94;48.71;101663.19;4969841;28;20040;-71
2022/05/22 10:07:49;;;;;;;15.57;6.32;;;;;;;20.93;49.60;101670.19;5012854;28;20097;-71
2022/05/22 10:10:30;;;;;;;11.93;5.45;;;;;;;20.88;47.39;101672.78;5012074;28;20060;-71
2022/05/22 10:13:08;;;;;;;10.60;5.20;;;;;;;20.87;47.08;101668.44;5010685;28;20061;-77
2022/05/22 10:15:36;;;;;;;12.18;7.22;;;;;;;20.87;46.15;101663.22;5012756;28;20033;-67
2022/05/22 10:18:01;;;;;;;9.88;5.38;;;;;;;21.07;48.13;101660.53;5006442;28;20029;-69
2022/05/22 10:20:49;;;;;;;13.18;5.28;;;;;;;21.15;47.49;101658.75;5013872;28;20036;-72
2022/05/22 10:23:23;;;;;;;12.48;5.47;;;;;;;21.07;46.54;101657.06;5010634;28;20022;-74
2022/05/22 10:26:00;;;;;;;11.45;4.95;;;;;;;21.04;45.65;101654.44;5011599;28;20523;-75
2022/05/22 10:28:59;;;;;;;10.73;5.07;;;;;;;21.03;46.33;101658.81;5007533;28;20036;-76
2022/05/22 10:31:42;;;;;;;11.38;5.07;;;;;;;21.14;48.45;101657.03;5000289;28;20053;-76
2022/05/22 10:34:32;;;;;;;13.95;5.32;;;;;;;21.11;47.91;101650.94;5006746;28;20029;-79
2022/05/22 10:37:10;;;;;;;11.00;5.57;;;;;;;21.05;47.12;101636.16;5018219;28;20045;-80
2022/05/22 10:39:35;;;;;;;12.43;5.53;;;;;;;21.05;46.30;101637.88;5016707;28;20037;-76
2022/05/22 10:45:24;;;;;;;12.50;5.05;;;;;;;21.12;46.72;101629.16;5015668;28;20052;-75
2022/05/22 10:47:52;;;;;;;10.18;4.80;;;;;;;21.14;46.01;101624.78;5020006;28;20095;-74
2022/05/22 10:50:25;;;;;;;10.07;4.50;;;;;;;21.30;48.50;101609.94;5018890;28;20075;-78
2022/05/22 10:52:52;;;;;;;9.85;5.13;;;;;;;21.28;45.64;101609.91;5026135;28;20029;-80
2022/05/22 10:55:44;;;;;;;8.88;4.20;;;;;;;21.40;47.52;101599.41;5020182;28;20088;-73
2022/05/22 10:58:25;;;;;;;11.68;4.63;;;;;;;21.39;45.86;101594.19;5034321;28;20037;-77
2022/05/22 11:00:59;;;;;;;10.20;4.72;;;;;;;21.38;46.02;101597.69;5018816;28;20108;-75
2022/05/22 11:03:32;;;;;;;12.40;5.78;;;;;;;21.32;46.20;101587.25;5019843;28;20042;-74
2022/05/22 11:06:01;;;;;;;16.73;6.25;;;;;;;21.19;45.23;101586.41;5016325;28;20125;-75
2022/05/22 11:08:28;;;;;;;13.63;5.28;;;;;;;21.17;45.67;101582.91;5015489;28;20033;-75
2022/05/22 11:10:54;;;;;;;13.52;5.88;;;;;;;21.15;45.69;101584.66;5017972;28;20475;-77
2022/05/22 11:13:23;;;;;;;11.55;5.80;;;;;;;21.24;45.89;101586.41;5020113;28;20494;-79
2022/05/22 11:15:49;;;;;;;9.95;4.65;;;;;;;21.37;45.25;101595.94;5023175;28;20116;-74
2022/05/22 11:18:26;;;;;;;11.50;5.18;;;;;;;21.37;44.70;101586.34;5019466;28;20757;-74
2022/05/22 11:21:22;;;;;;;9.98;4.57;;;;;;;21.53;46.63;101586.25;5019429;28;20037;-79
2022/05/22 11:23:50;;;;;;;15.43;5.07;;;;;;;21.55;46.71;101580.16;5022450;28;20038;-72
2022/05/22 11:26:34;;;;;;;11.23;5.03;;;;;;;21.63;45.73;101577.47;5027586;28;20072;-71
2022/05/22 11:29:12;;;;;;;11.15;5.53;;;;;;;21.50;44.38;101573.22;5019094;28;20392;-78
2022/05/22 11:31:50;;;;;;;11.75;4.97;;;;;;;21.51;45.32;101565.34;5019559;28;20038;-71
2022/05/22 11:34:34;;;;;;;14.80;5.67;;;;;;;21.49;46.42;101566.25;5022288;28;20396;-76
2022/05/22 11:37:36;;;;;;;11.82;5.55;;;;;;;21.46;45.78;101559.25;5017970;28;20045;-75
2022/05/22 11:40:14;;;;;;;11.10;5.40;;;;;;;21.44;45.42;101547.06;5024366;28;20041;-75
2022/05/22 11:42:40;;;;;;;14.32;5.75;;;;;;;21.41;43.85;101534.88;5018907;28;20029;-76
2022/05/22 11:45:27;;;;;;;13.50;5.72;;;;;;;21.41;43.67;101537.47;5016380;28;20373;-73
2022/05/22 11:47:55;;;;;;;10.82;4.35;;;;;;;21.49;45.09;101533.09;5020919;28;20101;-69
2022/05/22 11:50:45;;;;;;;9.13;4.70;;;;;;;21.54;44.71;101527.84;5016881;28;20022;-69
2022/05/22 11:53:35;;;;;;;11.07;4.18;;;;;;;21.66;46.34;101531.22;5023301;28;20109;-69